Central Sierra Snow Lab Weather observations

Data are for 10 minute period ending at time listed.
 Day   Time    Incoming  Reflected   Ave.   Ave.    Ave.    Vector  Max.    Ave.    Total    Snow   
  of    of      Solar     Solar      Air    Rel.    Wind    Wind    Wind   Baro.   Precip.   Depth  
Year   Day     Radiation Radiation   Temp.  Humid.  Speed   Dir.    Gust   Press.                   
2016   (PST)    Kw/m2     Kw/m2       F       %      mph     deg.    mph     mb.     in.      in.   
----------------------------------------------------------------------------------------------------
 270   18:50    0.000     999.000     59.3     30     2.2      28     3.2   797.20    9.67   -3.20  
 270   19:00    0.000     999.000     58.4     32     2.7      28     3.2   797.30    9.67   -3.10  
 270   19:10    0.000     999.000     57.6     32     2.1      23     3.1   797.30    9.67   -3.10  
 270   19:20    0.000     999.000     56.9     33     1.6      31     3.1   797.40    9.67   -3.10  
 270   19:30    0.000     999.000     56.1     34     2.0      33     3.2   797.50    9.67   -3.00  
 270   19:40    0.000     999.000     55.5     35     2.0      33     3.4   797.50    9.67   -3.00  
 270   19:50    0.000     999.000     54.9     36     1.8      38     2.5   797.50    9.67   -3.00  
 270   20:00    0.000     999.000     54.4     37     2.1      33     3.7   797.50    9.68   -3.00  
 270   20:10    0.000     999.000     53.9     38     0.8      37     1.9   797.50    9.68   -3.10  
 270   20:20    0.000     999.000     53.5     39     2.0      31     3.2   797.50    9.67   -2.90  
 270   20:30    0.000     999.000     52.9     40     1.4      41     3.0   797.50    9.67   -3.00  
 270   20:40    0.000     999.000     52.5     41     1.6      39     3.0   797.50    9.67   -3.00  
 270   20:50    0.000     999.000     52.2     41     1.9      35     3.3   797.50    9.67   -2.90  
 270   21:00    0.000     999.000     51.9     42     1.3      42     2.7   797.50    9.67   -2.90  
 270   21:10    0.000     999.000     51.7     43     2.2      35     3.8   797.50    9.68   -3.00  
 270   21:20    0.000     999.000     51.5     44     2.3      34     3.4   797.50    9.67   -3.00  
 270   21:30    0.000     999.000     51.1     44     2.0      38     2.9   797.50    9.67   -2.90  
 270   21:40    0.000     999.000     50.8     45     1.5      37     2.3   797.50    9.67   -2.90  
 270   21:50    0.000     999.000     50.6     45     2.1      36     3.7   797.50    9.67   -2.90  
 270   22:00    0.000     999.000     50.3     45     1.3      48     2.2   797.50    9.68   -2.90  
 270   22:10    0.000     999.000     50.1     45     1.8      34     3.1   797.60    9.67   -2.90  
 270   22:20    0.000     999.000     49.8     45     2.6      29     3.7   797.50    9.67   -2.90  
 270   22:30    0.000     999.000     49.6     45     2.3      33     3.7   797.50    9.67   -3.00  
 270   22:40    0.000     999.000     49.4     46     1.5      41     2.9   797.50    9.68   -2.90  
 270   22:50    0.000     999.000     49.3     45     2.9      26     3.6   797.50    9.67   -2.80  
 270   23:00    0.000     999.000     49.2     45     2.8      34     4.0   797.40    9.67   -2.90  
 270   23:10    0.000     999.000     49.0     45     2.3      37     3.9   797.30    9.68   -2.90  
 270   23:20    0.000     999.000     48.8     45     3.0      30     4.0   797.30    9.68   -2.90  
 270   23:30    0.000     999.000     48.6     46     2.5      36     4.0   797.20    9.68   -2.80  
 270   23:40    0.000     999.000     48.4     46     4.2      28     5.0   797.10    9.68   -2.90  
 270   23:50    0.000     999.000     48.2     46     2.0      42     3.9   797.10    9.67   -2.90  
 271    0:00    0.000     999.000     48.0     46     1.3      31     3.1   797.00    9.68   -2.80  
 271    0:10    0.000     999.000     48.0     46     2.9      30     4.4   797.00    9.68   -2.90  
 271    0:20    0.000     999.000     47.9     46     3.2      31     4.0   797.00    9.68   -2.80  
 271    0:30    0.000     999.000     47.9     46     3.8      29     4.3   797.00    9.68   -2.90  
 271    0:40    0.000     999.000     47.8     46     3.7      30     4.8   796.90    9.68   -3.00  
 271    0:50    0.000     999.000     47.5     47     3.2      30     4.3   796.90    9.68   -3.00  
 271    1:00    0.000     999.000     47.4     47     3.2      25     3.6   796.80    9.68   -3.00  
 271    1:10    0.000     999.000     47.4     47     3.8      26     4.6   796.80    9.68   -3.00  
 271    1:20    0.000     999.000     47.3     46     2.6      29     3.9   796.70    9.67   -3.00  
 271    1:30    0.000     999.000     47.2     46     3.5      30     3.8   796.60    9.67   -2.90  
 271    1:40    0.000     999.000     47.3     46     2.9      25     3.8   796.50    9.67   -2.90  
 271    1:50    0.000     999.000     47.1     46     3.0      26     3.6   796.40    9.67   -2.90  
 271    2:00    0.000     999.000     47.1     46     2.7      30     3.6   796.40    9.68   -3.00  
 271    2:10    0.000     999.000     46.8     46     2.1      34     3.6   796.30    9.68   -2.90  
 271    2:20    0.000     999.000     46.8     46     2.8      32     4.5   796.20    9.68   -2.90  
 271    2:30    0.000     999.000     46.9     46     3.5      30     4.7   796.20    9.68   -2.90  
 271    2:40    0.000     999.000     46.9     46     2.7      32     4.0   796.10    9.68   -2.90  
 271    2:50    0.000     999.000     46.8     46     2.7      32     3.8   796.10    9.67   -2.90  
 271    3:00    0.000     999.000     46.9     46     2.8      28     3.3   796.10    9.68   -3.00  
 271    3:10    0.000     999.000     46.9     46     2.7      27     3.6   796.10    9.68   -3.00  
 271    3:20    0.000     999.000     46.8     46     3.1      27     3.8   796.10    9.68   -3.00  
 271    3:30    0.000     999.000     46.7     47     2.8      27     3.9   796.10    9.68   -3.00  
 271    3:40    0.000     999.000     46.8     47     2.1      31     3.6   796.10    9.67   -2.90  
 271    3:50    0.000     999.000     47.0     47     2.5      26     3.6   796.10    9.68   -2.90  
 271    4:00    0.000     999.000     47.0     47     3.0      26     4.0   796.10    9.68   -3.00  
 271    4:10    0.000     999.000     46.9     47     3.0      26     4.0   796.10    9.68   -3.00  
 271    4:20    0.000     999.000     46.8     47     3.1      25     4.0   796.10    9.68   -3.10  
 271    4:30    0.000     999.000     46.5     48     3.2      24     3.9   796.00    9.68   -3.10  
 271    4:40    0.000     999.000     46.2     48     3.5      26     4.4   796.00    9.68   -3.00  
 271    4:50    0.000     999.000     46.2     48     1.6      44     2.9   796.00    9.68   -2.90  
 271    5:00    0.000     999.000     45.7     48     2.1      42     4.0   796.00    9.68   -2.90  
 271    5:10    0.000     999.000     46.1     48     2.5      26     3.8   796.00    9.68   -3.00  
 271    5:20    0.000     999.000     46.3     47     1.9      34     4.1   796.00    9.68   -3.00  
 271    5:30    0.000     999.000     45.7     48     1.5      46     2.8   796.00    9.68   -2.80  
 271    5:40    0.000     999.000     45.6     48     1.8      36     3.5   796.00    9.68   -2.90  
 271    5:50    0.001     999.000     45.9     47     2.8      28     3.8   796.00    9.68   -3.00  
 271    6:00    0.002     999.000     45.8     47     2.4      31     3.8   796.10    9.68   -3.00  
 271    6:10    0.004     999.000     45.8     47     2.6      29     4.0   796.10    9.68   -3.00  
 271    6:20    0.006     999.000     45.9     47     2.1      43     4.2   796.10    9.68   -2.90  
 271    6:30    0.008     999.000     46.3     46     2.4      31     3.6   796.10    9.67   -2.90  
 271    6:40    0.009     999.000     46.2     47     1.4      53     2.2   796.00    9.68   -2.90  
 271    6:50    0.010     999.000     46.6     47     2.3      35     3.6   796.10    9.68   -3.00  
 271    7:00    0.011     999.000     47.2     47     1.7      34     2.5   796.10    9.68   -3.00  
 271    7:10    0.012     999.000     47.7     46     1.8      40     2.3   796.10    9.68   -3.00  
 271    7:20    0.017     999.000     48.9     44     1.6      54     2.4   796.10    9.68   -2.90  
 271    7:30    0.056     999.000     50.3     42     1.7      47     2.9   796.10    9.68   -2.90  
 271    7:40    0.152     999.000     51.9     38     1.4      54     2.2   796.10    9.68   -3.10  
 271    7:50    0.071     999.000     54.2     37     1.2      55     2.1   796.10    9.68   -3.40  
 271    8:00    0.048     999.000     56.3     35     0.8      61     2.1   796.10    9.68   -3.60  
 271    8:10    0.049     999.000     57.8     34     0.8      59     1.8   796.10    9.68   -3.50  
 271    8:20    0.189     999.000     59.9     32     0.8      52     3.6   796.10    9.68   -3.30  
 271    8:30    0.277     999.000     62.7     28     1.0      24     4.6   796.10    9.68   -3.30  
 271    8:40    0.454     999.000     64.7     25     0.6      16     2.9   796.00    9.68   -3.80  
 271    8:50    0.482     999.000     66.5     23     0.7      65     3.4   796.00    9.68   -4.00  
 271    9:00    0.508     999.000     68.0     21     1.1      31     3.0   796.00    9.68   -4.40  
 271    9:10    0.534     999.000     69.1     21     1.5      15     4.0   796.00    9.68   -4.40  
 271    9:20    0.558     999.000     70.3     20     1.7      33     4.5   795.90    9.68   -4.40  
 271    9:30    0.581     999.000     70.7     20     2.1       7     5.4   795.90    9.67   -4.20  
 271    9:40    0.603     999.000     71.8     19     1.6      12     4.6   795.80    9.67   -4.40  
 271    9:50    0.624     999.000     72.0     18     1.7     353     4.5   795.70    9.67   -4.50  
 271   10:00    0.644     999.000     72.4     18     1.8     226     5.4   795.60    9.68   -4.60  
 271   10:10    0.662     999.000     72.2     18     1.8     138     5.1   795.50    9.68   -4.60  
 271   10:20    0.680     999.000     73.4     18     1.9     136     5.0   795.40    9.67   -4.60  
 271   10:30    0.695     999.000     73.5     17     2.4     270     6.6   795.30    9.67   -4.60  
 271   10:40    0.709     999.000     73.2     16     3.7     111     6.6   795.10    9.67   -4.70  
 271   10:50    0.723     999.000     73.8     16     1.9     321     5.7   795.10    9.67   -4.60  
 271   11:00    0.733     999.000     74.5     15     3.6      28     9.8   794.90    9.67   -4.30  
 271   11:10    0.741     999.000     75.0     15     2.7     131     7.7   794.80    9.67   -4.50  
 271   11:20    0.747     999.000     75.7     15     2.7     251     6.2   794.70    9.67   -4.50  
 271   11:30    0.753     999.000     76.1     14     1.8     282     6.9   794.60    9.66   -4.50  
 271   11:40    0.758     999.000     76.3     14     2.9     213     7.7   794.50    9.67   -4.30  
 271   11:50    0.759     999.000     76.1     15     3.3     229     7.5   794.40    9.67   -4.40  
 271   12:00    0.759     999.000     77.2     15     2.9     210     7.7   794.40    9.67   -4.50  
 271   12:10    0.757     999.000     77.1     15     3.1     210     7.8   794.30    9.67   -4.30  
 271   12:20    0.755     999.000     76.4     16     2.8     219     7.8   794.20    9.67   -4.50  
 271   12:30    0.766     999.000     76.4     17     3.4     211     9.4   794.20    9.67   -4.20  
 271   12:40    0.742     999.000     76.4     17     2.2     204     7.5   794.10    9.67   -4.30  
 271   12:50    0.733     999.000     76.0     18     2.9     237     8.9   794.00    9.67   -4.40  
 271   13:00    0.722     999.000     76.0     18     4.2     213     8.5   794.00    9.67   -4.10  
 271   13:10    0.710     999.000     74.9     18     4.4     272     8.7   793.90    9.67   -4.10  
 271   13:20    0.711     999.000     75.0     19     3.7     258     8.5   793.90    9.67   -4.00  
 271   13:30    0.687     999.000     75.3     19     3.7     239    10.0   793.90    9.67   -4.00  
 271   13:40    0.671     999.000     75.1     19     4.3     227    10.2   793.80    9.67   -3.90  
 271   13:50    0.653     999.000     76.1     19     3.6     264     8.5   793.80    9.67   -4.10  
 271   14:00    0.634     999.000     75.9     19     3.3     222     8.5   793.70    9.67   -4.00  
 271   14:10    0.614     999.000     76.1     19     3.7     266    10.8   793.70    9.67   -4.00  
 271   14:20    0.596     999.000     76.6     19     2.7     217     6.8   793.70    9.67   -3.90  
 271   14:30    0.573     999.000     75.5     19     3.6     268     9.5   793.70    9.67   -3.80  
 271   14:40    0.549     999.000     75.5     20     2.7     211     6.1   793.70    9.66   -3.80  
 271   14:50    0.524     999.000     76.5     19     2.0     249    10.0   793.60    9.67   -3.90  
 271   15:00    0.498     999.000     75.3     20     4.4     299    10.0   793.50    9.67   -3.70  
 271   15:10    0.471     999.000     75.1     20     3.7     216    12.5   793.60    9.66   -3.60  
 271   15:20    0.443     999.000     74.5     21     4.0     280     9.9   793.60    9.67   -3.60  
 271   15:30    0.414     999.000     74.5     21     3.1     256     9.1   793.50    9.67   -3.60  
 271   15:40    0.385     999.000     74.6     21     3.0     229     8.1   793.50    9.67   -3.60  
 271   15:50    0.354     999.000     74.7     21     2.3     218     7.4   793.50    9.67   -3.60  
 271   16:00    0.324     999.000     74.3     22     3.4     234     8.2   793.50    9.67   -3.60  
 271   16:10    0.292     999.000     74.1     22     2.0     231     6.4   793.40    9.67   -3.60  
 271   16:20    0.180     999.000     73.6     23     2.9     240    11.4   793.50    9.67   -3.50  
 271   16:30    0.042     999.000     72.1     24     2.6     204     7.0   793.50    9.67   -3.40  
 271   16:40    0.047     999.000     71.5     24     2.3     239     5.7   793.60    9.66   -3.40  
 271   16:50    0.036     999.000     71.4     25     1.8     215     6.3   793.60    9.67   -3.50  
 271   17:00    0.051     999.000     70.9     25     2.0     219     7.0   793.60    9.67   -3.50  
 271   17:10    0.029     999.000     70.0     26     1.9     213     5.4   793.70    9.67   -3.30  
 271   17:20    0.018     999.000     69.1     27     1.7     200     5.2   793.70    9.67   -3.20  
 271   17:30    0.014     999.000     68.2     28     0.8     168     3.5   793.80    9.67   -3.20  
 271   17:40    0.010     999.000     67.4     28     1.4     251     4.4   793.80    9.67   -3.10  
 271   17:50    0.005     999.000     66.8     28     0.5     139     2.0   793.90    9.67   -3.20  
 271   18:00    0.002     999.000     65.9     29     0.4      96     1.5   793.90    9.67   -3.20  
 271   18:10    0.000     999.000     64.9     30     1.4      84     2.2   794.10    9.67   -3.20  
 271   18:20    0.000     999.000     63.7     32     1.5      34     2.7   794.10    9.66   -3.30  
 271   18:30    0.000     999.000     62.2     33     2.1      30     3.1   794.10    9.67   -3.20  
 271   18:40    0.000     999.000     60.9     35     2.3      27     3.3   794.10    9.67   -3.20  

Return to Central Sierra Snow Lab graphs page.


Western Regional Climate Center,wrcc@dri.edu